WOLFEBORO: From 03/10/2019 02:00 to 03/24/2019 18:00

Date PRECIPITATION INCREMENT [IN] AIR TEMPERATURE [DEGF] RELATIVE HUMIDITY [%] BAROMETRIC PRESSURE [INHG] AVERAGE WIND SPEED [FT/S] MAXIMUM WIND SPEED [FT/S] MINIMUM WIND SPEED [FT/S] AVERAGE WIND DIRECTION [] MAXIMUM WIND DIRECTION [] MINIMUM WIND DIRECTION []
03/24/2019 06:00 0.00 -- -- 29.31 4.33 14.00 0.00 0.0 50.3 0.0
03/24/2019 05:00 0.00 29.0 28.3 29.31 4.75 15.25 0.00 0.3 61.3 0.0
03/24/2019 04:00 0.00 29.0 31.1 29.29 4.00 13.75 0.00 0.3 60.5 0.0
03/24/2019 03:00 0.00 29.0 28.9 29.29 4.25 14.25 0.00 0.3 53.3 0.0
03/24/2019 02:00 0.00 30.0 24.9 29.29 4.50 15.75 0.00 0.3 48.0 0.0
03/24/2019 01:00 0.00 30.0 25.6 29.27 7.75 20.50 0.00 0.0 39.3 0.0
03/24/2019 00:00 0.00 30.0 24.0 29.27 3.50 12.75 0.00 0.0 35.0 0.0
03/23/2019 23:00 0.00 30.0 22.1 29.26 6.25 18.00 0.00 0.3 55.5 0.0
03/23/2019 22:00 0.00 31.0 24.6 29.23 6.25 18.00 0.00 0.0 41.3 0.0
03/23/2019 21:00 0.00 31.0 30.1 29.20 8.00 23.25 0.00 0.0 31.8 0.0
03/23/2019 20:00 0.00 32.0 37.7 29.17 7.75 23.00 0.00 0.0 32.8 0.0
03/23/2019 19:00 0.00 33.0 44.9 29.13 8.00 26.50 0.00 0.0 38.0 0.0
03/23/2019 18:00 0.00 37.0 35.9 29.09 7.25 22.00 0.00 0.0 30.3 0.0
03/23/2019 17:00 0.00 40.0 26.7 29.05 6.75 22.75 0.00 0.0 48.0 0.0
03/23/2019 16:00 0.00 37.0 38.6 29.01 6.25 20.00 0.00 0.0 47.5 0.0
03/23/2019 15:00 0.00 37.0 39.8 28.98 10.50 26.75 0.25 0.0 44.8 0.0
03/23/2019 14:00 0.00 37.0 40.2 28.95 11.00 27.25 0.00 0.0 34.3 0.0
03/23/2019 13:00 0.00 36.0 44.4 28.92 9.25 28.00 0.00 0.0 49.0 0.0
03/23/2019 12:00 0.00 33.0 48.9 28.88 14.00 32.00 0.50 0.0 50.0 0.0
03/23/2019 11:00 0.00 33.0 52.2 28.86 8.75 24.75 0.25 0.0 35.8 0.0
03/23/2019 10:00 0.00 33.0 46.6 28.81 10.75 31.25 0.25 0.0 41.0 0.0
03/23/2019 09:00 0.01 32.0 49.6 28.76 11.25 33.25 0.00 0.0 57.3 0.0
03/23/2019 08:00 0.00 34.0 53.6 28.72 9.25 25.75 0.00 0.0 48.5 0.0
03/23/2019 07:00 0.00 35.0 59.7 28.65 8.75 24.25 0.00 0.0 43.3 0.0
03/23/2019 06:00 0.00 36.0 58.7 28.59 6.25 18.00 0.00 0.0 39.0 0.0
03/23/2019 05:00 0.00 35.0 69.6 28.54 6.50 19.25 0.00 0.3 79.3 0.0
03/23/2019 04:00 0.00 35.0 74.6 28.52 5.50 16.50 0.00 0.5 66.0 0.0
03/23/2019 03:00 0.00 35.0 72.8 28.50 6.50 18.00 0.00 0.3 90.3 0.0
03/23/2019 02:00 0.00 35.0 73.5 28.50 6.75 18.00 0.00 0.0 79.8 0.0
03/23/2019 01:00 0.00 35.0 73.5 28.48 7.00 19.25 0.00 0.3 107.3 0.0
03/23/2019 00:00 0.00 35.0 70.4 28.48 8.00 20.75 0.00 0.3 83.0 0.0
03/22/2019 23:00 0.00 36.0 68.2 28.47 7.75 19.00 0.25 0.0 23.3 0.0
03/22/2019 22:00 0.00 36.0 64.5 28.45 5.50 16.75 0.00 0.0 26.3 0.0
03/22/2019 21:00 0.00 36.0 66.5 28.44 4.50 16.00 0.00 0.0 40.5 0.0
03/22/2019 20:00 0.00 36.0 69.0 28.43 6.00 17.25 0.00 0.3 62.8 0.0
03/22/2019 19:00 0.00 35.0 76.5 28.41 6.00 17.00 0.00 0.3 61.3 0.0
03/22/2019 18:00 0.01 35.0 80.5 28.39 4.00 16.25 0.00 1.0 68.5 0.0
03/22/2019 17:00 0.01 38.0 80.1 28.39 1.75 11.00 0.00 0.3 53.0 0.0
03/22/2019 16:00 0.03 40.0 80.5 28.41 1.25 9.50 0.00 0.0 32.0 0.0
03/22/2019 15:00 0.08 38.0 81.0 28.43 2.00 11.50 0.00 0.0 0.0 0.0
03/22/2019 14:00 0.07 37.0 81.1 28.48 1.25 8.50 0.00 0.0 14.5 0.0
03/22/2019 13:00 0.08 36.0 81.2 28.51 2.75 11.75 0.00 0.0 8.8 0.0
03/22/2019 12:00 0.08 36.0 79.8 28.56 2.25 12.00 0.00 0.0 0.3 0.0
03/22/2019 11:00 0.07 35.0 79.9 28.62 6.50 22.50 0.00 11.8 30.3 0.3
03/22/2019 10:00 0.03 32.0 84.8 28.71 9.25 23.50 0.00 1.0 3.8 0.3
03/22/2019 09:00 0.00 32.0 83.9 28.79 8.75 20.25 0.00 0.0 0.0 0.0
03/22/2019 08:00 0.00 33.0 80.0 28.86 9.50 23.75 0.00 0.0 7.5 0.0
03/22/2019 07:00 0.00 34.0 78.9 28.93 5.75 17.00 0.00 0.0 15.3 0.0
03/22/2019 06:00 0.00 35.0 76.7 28.99 6.50 16.25 0.00 0.0 0.0 0.0
03/22/2019 05:00 0.00 35.0 78.0 29.00 6.75 16.50 0.00 0.0 0.0 0.0
03/22/2019 04:00 0.00 36.0 77.3 29.08 4.25 11.75 0.00 0.0 0.0 0.0
03/22/2019 03:00 0.00 36.0 77.0 29.14 3.00 9.50 0.00 0.0 0.0 0.0
03/22/2019 02:00 0.00 36.0 74.7 29.18 2.00 7.50 0.00 0.0 0.0 0.0
03/22/2019 01:00 0.00 37.0 74.0 29.22 2.25 8.75 0.00 0.0 0.0 0.0
03/22/2019 00:00 0.00 37.0 72.9 29.25 2.00 9.75 0.00 0.0 0.0 0.0
03/21/2019 23:00 0.00 37.0 66.5 29.28 0.25 6.75 0.00 0.0 0.0 0.0
03/21/2019 22:00 0.00 38.0 60.8 29.32 0.50 3.75 0.00 0.0 0.0 0.0
03/21/2019 21:00 0.00 40.0 47.5 29.35 0.00 3.50 0.00 0.0 14.0 0.0
03/21/2019 20:00 0.00 41.0 31.3 29.36 0.25 6.25 0.00 0.3 28.5 0.0
03/21/2019 19:00 0.00 43.0 32.7 29.37 0.75 6.00 0.00 0.0 0.0 0.0
03/21/2019 18:00 0.00 45.0 38.3 29.38 2.50 11.25 0.00 0.0 0.0 0.0
03/21/2019 17:00 0.00 47.0 36.9 29.40 4.50 14.75 0.00 0.0 0.0 0.0
03/21/2019 16:00 0.00 49.0 21.7 29.41 4.25 12.75 0.00 0.0 0.0 0.0
03/21/2019 15:00 0.00 48.0 16.9 29.43 2.25 11.25 0.00 0.0 39.0 0.0
03/21/2019 14:00 0.00 49.0 12.7 29.45 2.25 13.00 0.00 0.0 35.8 0.0
03/21/2019 13:00 0.00 49.0 9.9 29.48 2.75 12.50 0.00 0.0 39.5 0.0
03/21/2019 12:00 0.00 47.0 10.7 29.51 2.00 12.50 0.00 0.3 48.3 0.0
03/21/2019 11:00 0.00 44.0 20.6 29.53 0.00 3.50 0.00 0.3 67.0 0.0
03/21/2019 10:00 0.00 41.0 30.2 29.54 0.25 7.50 0.00 0.0 16.5 0.0
03/21/2019 09:00 0.00 38.0 47.6 29.56 0.50 6.00 0.00 0.0 51.0 0.0
03/21/2019 08:00 0.00 36.0 50.6 29.57 0.25 5.25 0.00 0.0 20.0 0.0
03/21/2019 07:00 0.00 30.0 65.0 29.56 0.00 0.25 0.00 0.0 7.3 0.0
03/21/2019 06:00 0.00 32.0 60.0 29.56 0.25 2.50 0.00 0.3 33.0 0.0
03/21/2019 05:00 0.00 35.0 48.2 29.57 1.00 6.25 0.00 0.0 11.0 0.0
03/21/2019 04:00 0.00 33.0 52.2 29.57 0.00 1.00 0.00 1.0 98.5 0.0
03/21/2019 03:00 0.00 31.0 60.9 29.59 0.00 0.25 0.00 0.0 16.0 0.0
03/21/2019 02:00 0.00 32.0 59.8 29.59 0.25 3.75 0.00 0.0 26.3 0.0
03/21/2019 01:00 0.00 36.0 37.2 29.59 1.25 7.50 0.00 0.5 72.5 0.0
03/21/2019 00:00 0.00 34.0 50.1 29.60 0.00 1.50 0.00 0.0 19.0 0.0
03/20/2019 23:00 0.00 33.0 54.8 29.60 0.00 1.00 0.00 0.0 34.8 0.0
03/20/2019 22:00 0.00 33.0 52.5 29.60 0.00 0.00 0.00 0.0 0.0 0.0
03/20/2019 21:00 0.00 36.0 43.2 29.60 0.00 0.25 0.00 0.0 0.0 0.0
03/20/2019 20:00 0.00 39.0 31.3 29.59 0.50 7.25 0.00 0.0 0.0 0.0
03/20/2019 19:00 0.00 42.0 25.3 29.58 2.75 12.50 0.00 0.0 22.0 0.0
03/20/2019 18:00 0.00 51.0 8.6 29.58 0.00 3.75 0.00 0.8 99.3 0.0
03/20/2019 17:00 0.00 55.0 3.7 29.59 0.00 3.00 0.00 0.0 58.3 0.0
03/20/2019 16:00 0.00 55.0 4.3 29.60 0.00 2.00 0.00 0.3 66.0 0.0
03/20/2019 15:00 0.00 51.0 6.5 29.63 0.00 0.00 0.00 0.0 52.3 0.0
03/20/2019 14:00 0.00 49.0 7.3 29.66 0.00 0.25 0.00 0.3 77.3 0.0
03/20/2019 13:00 0.00 45.0 9.8 29.68 0.00 0.00 0.00 0.3 45.5 0.0
03/20/2019 12:00 0.00 36.0 17.7 29.70 0.00 0.00 0.00 1.3 101.0 0.0
03/20/2019 11:00 0.00 31.0 20.7 29.73 0.00 0.00 0.00 0.3 87.5 0.0
03/20/2019 10:00 0.00 26.0 31.8 29.74 0.00 0.00 0.00 0.3 81.8 0.0
03/20/2019 09:00 0.00 23.0 51.5 29.74 0.00 0.00 0.00 1.5 73.5 0.0
03/20/2019 08:00 0.00 17.0 62.7 29.75 0.00 0.00 0.00 0.0 0.0 0.0
03/20/2019 07:00 0.00 16.0 68.0 29.73 0.00 0.00 0.00 0.0 0.0 0.0
03/20/2019 06:00 0.00 16.0 65.8 29.73 0.00 0.00 0.00 0.0 0.0 0.0
03/20/2019 05:00 0.00 17.0 63.9 29.72 0.00 0.00 0.00 0.0 0.0 0.0
03/20/2019 04:00 0.00 18.0 62.1 29.72 0.00 0.00 0.00 0.0 0.0 0.0
03/20/2019 03:00 0.00 19.0 58.6 29.74 0.00 0.00 0.00 0.0 0.0 0.0
03/20/2019 02:00 0.00 20.0 57.9 29.74 0.00 0.00 0.00 0.0 0.0 0.0
03/20/2019 01:00 0.00 22.0 53.6 29.73 0.00 0.00 0.00 0.0 0.0 0.0
03/20/2019 00:00 0.00 23.0 48.4 29.73 0.00 0.00 0.00 0.0 0.0 0.0
03/19/2019 23:00 0.00 24.0 36.1 29.72 0.00 0.00 0.00 0.0 0.0 0.0
03/19/2019 22:00 0.00 27.0 22.0 29.71 0.00 0.00 0.00 0.0 0.0 0.0
03/19/2019 21:00 0.00 28.0 15.2 29.70 0.00 0.00 0.00 0.0 0.0 0.0
03/19/2019 20:00 0.00 31.0 9.5 29.70 0.00 1.00 0.00 0.0 19.0 0.0
03/19/2019 19:00 0.00 34.0 5.8 29.68 2.50 11.75 0.00 0.3 49.3 0.0
03/19/2019 18:00 0.00 38.0 2.0 29.66 3.50 15.75 0.00 0.0 43.8 0.0
03/19/2019 17:00 0.00 43.0 0.9 29.65 3.50 14.75 0.00 0.0 46.0 0.0
03/19/2019 16:00 0.00 44.0 3.7 29.65 3.00 12.75 0.00 0.3 65.5 0.0
03/19/2019 15:00 0.00 41.0 5.1 29.66 4.25 12.75 0.00 0.3 60.0 0.0
03/19/2019 14:00 0.00 38.0 4.1 29.68 4.00 13.25 0.00 0.3 67.5 0.0
03/19/2019 13:00 0.00 37.0 6.3 29.69 4.25 15.00 0.00 0.3 35.5 0.0
03/19/2019 12:00 0.00 33.0 9.4 29.69 4.00 11.75 0.00 0.3 65.0 0.0
03/19/2019 11:00 0.00 31.0 31.0 29.70 2.50 10.00 0.00 0.3 66.3 0.0
03/19/2019 10:00 0.00 29.0 41.5 29.70 2.25 8.75 0.00 0.3 57.3 0.0
03/19/2019 09:00 0.00 25.0 44.0 29.69 0.00 0.25 0.00 0.3 20.3 0.0
03/19/2019 08:00 0.00 21.0 63.2 29.68 0.00 0.00 0.00 0.0 0.0 0.0
03/19/2019 07:00 0.00 20.0 66.3 29.66 0.00 0.00 0.00 0.0 0.0 0.0
03/19/2019 06:00 0.00 18.0 68.2 29.65 0.00 0.00 0.00 0.0 0.0 0.0
03/19/2019 05:00 0.00 19.0 64.7 29.64 0.00 0.00 0.00 0.0 0.0 0.0
03/19/2019 04:00 0.00 19.0 63.1 29.63 0.25 2.00 0.00 0.0 0.0 0.0
03/19/2019 03:00 0.00 21.0 61.4 29.63 0.00 0.00 0.00 0.0 0.0 0.0
03/19/2019 02:00 0.00 22.0 55.7 29.63 0.00 0.50 0.00 0.0 0.0 0.0
03/19/2019 01:00 0.00 24.0 52.8 29.62 0.00 0.00 0.00 0.0 0.0 0.0
03/19/2019 00:00 0.00 25.0 50.4 29.62 0.00 0.00 0.00 0.0 0.0 0.0
03/18/2019 23:00 0.00 25.0 47.4 29.61 0.00 0.00 0.00 0.0 0.0 0.0
03/18/2019 22:00 0.00 27.0 42.9 29.60 0.00 0.00 0.00 0.0 0.0 0.0
03/18/2019 21:00 0.00 28.0 37.6 29.59 0.00 0.00 0.00 0.0 0.0 0.0
03/18/2019 20:00 0.00 29.0 24.0 29.56 0.00 1.25 0.00 0.3 36.8 0.0
03/18/2019 19:00 0.00 33.0 10.1 29.55 1.50 9.25 0.00 0.0 35.8 0.0
03/18/2019 18:00 0.00 38.0 6.5 29.53 3.75 13.25 0.00 0.0 31.0 0.0
03/18/2019 17:00 0.00 40.0 4.2 29.52 5.00 15.75 0.00 0.0 41.3 0.0
03/18/2019 16:00 0.00 39.0 3.0 29.52 5.75 18.50 0.00 0.0 46.8 0.0
03/18/2019 15:00 0.00 37.0 4.0 29.52 6.00 19.25 0.00 0.0 39.5 0.0
03/18/2019 14:00 0.00 36.0 6.4 29.54 6.75 18.50 0.00 0.3 60.3 0.0
03/18/2019 13:00 0.00 32.0 7.8 29.54 6.75 18.75 0.00 0.0 55.3 0.0
03/18/2019 12:00 0.00 29.0 12.7 29.54 7.25 18.75 0.00 0.0 41.5 0.0
03/18/2019 11:00 0.00 27.0 17.6 29.55 5.75 17.00 0.00 0.0 51.0 0.0
03/18/2019 10:00 0.00 26.0 27.5 29.55 5.00 15.50 0.00 0.3 50.0 0.0
03/18/2019 09:00 0.00 24.0 36.5 29.54 2.75 10.25 0.00 0.0 58.0 0.0
03/18/2019 08:00 0.00 22.0 44.1 29.52 2.75 10.75 0.00 0.0 61.0 0.0
03/18/2019 07:00 0.00 22.0 46.7 29.51 1.25 8.50 0.00 0.3 74.8 0.0
03/18/2019 06:00 0.00 18.0 64.7 29.50 0.00 1.00 0.00 0.0 23.0 0.0
03/18/2019 05:00 0.00 19.0 62.0 29.48 0.00 0.00 0.00 0.0 0.0 0.0
03/18/2019 04:00 0.00 19.0 61.2 29.48 0.00 0.00 0.00 0.3 37.0 0.0
03/18/2019 03:00 0.00 20.0 57.2 29.48 0.00 0.00 0.00 0.0 0.0 0.0
03/18/2019 02:00 0.00 21.0 54.8 29.48 0.00 0.00 0.00 0.0 10.5 0.0
03/18/2019 01:00 0.00 23.0 49.0 29.48 0.00 1.00 0.00 0.3 20.8 0.0
03/18/2019 00:00 0.00 24.0 39.4 29.49 0.75 7.00 0.00 2.0 130.3 0.0
03/17/2019 23:00 0.00 26.0 26.2 29.48 0.75 7.25 0.00 0.3 76.3 0.0
03/17/2019 22:00 0.00 27.0 23.4 29.47 0.25 4.00 0.00 0.3 80.8 0.0
03/17/2019 21:00 0.00 28.0 21.1 29.45 0.50 5.25 0.00 0.3 64.8 0.0
03/17/2019 20:00 0.00 29.0 15.7 29.43 0.25 5.25 0.00 0.3 42.5 0.0
03/17/2019 19:00 0.00 30.0 14.0 29.41 1.75 10.50 0.00 0.0 28.0 0.0
03/17/2019 18:00 0.00 34.0 11.0 29.40 3.00 14.00 0.00 0.0 39.0 0.0
03/17/2019 17:00 0.00 37.0 7.3 29.40 5.50 16.50 0.00 0.0 47.8 0.0
03/17/2019 16:00 0.00 37.0 7.9 29.39 5.50 17.50 0.00 0.0 33.3 0.0
03/17/2019 15:00 0.00 36.0 8.6 29.40 4.25 17.50 0.00 0.0 48.8 0.0
03/17/2019 14:00 0.00 34.0 10.2 29.41 4.75 18.75 0.00 0.0 20.0 0.0
03/17/2019 13:00 0.00 31.0 10.5 29.42 4.00 19.75 0.00 0.0 46.5 0.0
03/17/2019 12:00 0.00 28.0 14.3 29.42 6.50 21.25 0.00 0.0 49.3 0.0
03/17/2019 11:00 0.00 27.0 17.0 29.43 9.00 23.25 0.00 0.0 43.8 0.0
03/17/2019 10:00 0.00 26.0 25.4 29.42 4.25 16.25 0.00 0.3 48.3 0.0
03/17/2019 09:00 0.00 25.0 27.2 29.41 3.50 15.00 0.00 0.0 55.8 0.0
03/17/2019 08:00 0.00 24.0 34.6 29.40 4.75 14.25 0.00 0.0 57.5 0.0
03/17/2019 07:00 0.00 24.0 37.3 29.38 5.50 16.50 0.00 0.0 51.0 0.0
03/17/2019 06:00 0.00 26.0 30.5 29.35 6.00 17.50 0.00 0.0 45.0 0.0
03/17/2019 05:00 0.00 26.0 68.1 29.32 5.25 16.50 0.00 0.0 38.3 0.0
03/17/2019 04:00 0.00 28.0 65.9 29.30 3.50 12.75 0.00 0.0 42.5 0.0
03/17/2019 03:00 0.00 29.0 43.2 29.29 2.00 9.50 0.00 0.8 72.8 0.0
03/17/2019 02:00 0.00 29.0 46.5 29.29 3.50 11.50 0.00 0.5 69.8 0.0
03/17/2019 01:00 0.00 30.0 43.8 29.27 1.75 11.00 0.00 0.0 56.5 0.0
03/17/2019 00:00 0.00 30.0 42.2 29.27 2.00 9.00 0.00 0.0 48.5 0.0
03/16/2019 23:00 0.00 31.0 45.0 29.27 2.25 10.75 0.00 0.3 65.3 0.0
03/16/2019 22:00 0.00 31.0 40.1 29.27 5.50 15.75 0.00 0.3 55.3 0.0
03/16/2019 21:00 0.00 32.0 39.6 29.26 7.25 19.25 0.00 0.0 59.8 0.0
03/16/2019 20:00 0.00 33.0 33.5 29.24 7.50 20.25 0.00 0.0 52.0 0.0
03/16/2019 19:00 0.00 35.0 24.9 29.21 7.50 22.25 0.00 0.0 36.0 0.0
03/16/2019 18:00 0.00 38.0 21.8 29.18 5.50 21.25 0.00 0.0 43.3 0.0
03/16/2019 17:00 0.00 42.0 16.6 29.16 9.25 25.00 0.00 0.0 50.5 0.0
03/16/2019 16:00 0.00 42.0 16.1 29.14 10.75 27.25 0.50 0.0 65.3 0.0
03/16/2019 15:00 0.00 41.0 19.1 29.12 11.75 28.75 0.75 0.0 54.0 0.0
03/16/2019 14:00 0.00 42.0 20.0 29.11 9.75 27.25 0.25 0.0 51.3 0.0
03/16/2019 13:00 -- 42.0 22.3 -- -- -- -- -- -- --
03/16/2019 12:00 0.00 41.0 32.8 29.08 9.00 22.00 0.00 0.0 59.3 0.0
03/16/2019 11:00 0.00 42.0 26.8 29.06 10.25 23.25 0.00 0.0 56.8 0.0
03/16/2019 10:00 0.00 42.0 28.0 29.05 9.25 21.50 0.00 0.0 56.3 0.0
03/16/2019 09:00 0.00 42.0 39.2 29.05 5.00 16.25 0.00 0.5 56.8 0.0
03/16/2019 08:00 0.00 41.0 46.5 29.04 5.50 15.75 0.00 0.3 44.8 0.0
03/16/2019 07:00 0.00 40.0 48.5 29.03 5.50 15.50 0.00 0.3 58.5 0.0
03/16/2019 06:00 0.00 41.0 52.8 29.01 6.50 18.00 0.00 0.0 52.0 0.0
03/16/2019 05:00 0.00 43.0 54.4 28.98 6.50 15.75 0.00 0.0 53.3 0.0
03/16/2019 04:00 0.00 44.0 55.9 28.98 6.25 13.75 0.25 0.3 64.5 0.0
03/16/2019 03:00 0.00 45.0 56.7 28.99 5.50 14.75 0.25 0.0 54.5 0.0
03/16/2019 02:00 0.00 45.0 58.8 28.98 3.50 12.00 0.00 0.0 40.0 0.0
03/16/2019 01:00 0.00 45.0 63.3 28.96 2.25 8.50 0.00 0.5 66.8 0.0
03/16/2019 00:00 0.00 41.0 82.1 28.96 0.00 0.00 0.00 1.5 61.8 0.0
03/15/2019 23:00 0.00 41.0 77.2 28.98 0.00 1.25 0.00 0.0 0.0 0.0
03/15/2019 22:00 0.00 45.0 77.3 29.00 0.00 0.00 0.00 0.0 10.0 0.0
03/15/2019 21:00 0.00 44.0 77.8 29.00 0.00 0.00 0.00 0.0 0.0 0.0
03/15/2019 20:00 0.00 49.0 71.4 29.02 0.00 0.00 0.00 0.0 0.0 0.0
03/15/2019 19:00 0.00 53.0 65.1 29.01 0.00 2.25 0.00 0.3 52.0 0.0
03/15/2019 18:00 0.00 60.0 52.0 29.01 0.50 8.00 0.00 0.0 42.3 0.0
03/15/2019 17:00 0.00 64.0 45.0 29.00 1.50 7.75 0.00 0.3 50.3 0.0
03/15/2019 16:00 0.00 66.0 38.8 29.01 0.25 3.25 0.00 0.0 46.3 0.0
03/15/2019 15:00 0.00 60.0 46.4 29.02 0.00 1.25 0.00 0.3 77.3 0.0
03/15/2019 14:00 0.00 56.0 58.5 29.05 0.00 0.50 0.00 0.0 17.8 0.0
03/15/2019 13:00 0.00 50.0 73.5 29.09 1.00 7.75 0.00 0.0 39.3 0.0
03/15/2019 12:00 0.00 46.0 80.1 29.10 0.25 4.25 0.00 0.3 50.0 0.0
03/15/2019 11:00 0.00 45.0 81.3 29.13 0.00 1.75 0.00 0.0 33.8 0.0
03/15/2019 10:00 0.01 42.0 82.8 29.15 0.50 4.75 0.00 0.0 0.0 0.0
03/15/2019 09:00 0.03 40.0 81.8 29.20 0.00 1.00 0.00 0.0 0.0 0.0
03/15/2019 08:00 0.00 39.0 80.4 29.21 0.00 2.50 0.00 0.0 0.0 0.0
03/15/2019 07:00 0.00 38.0 79.9 29.23 0.00 0.50 0.00 0.0 0.0 0.0
03/15/2019 06:00 0.00 38.0 79.5 29.25 0.25 4.00 0.00 0.0 0.0 0.0
03/15/2019 05:00 0.00 39.0 77.9 29.28 0.50 5.50 0.00 0.0 0.0 0.0
03/15/2019 04:00 0.00 40.0 75.5 29.32 0.50 7.00 0.00 0.0 20.3 0.0
03/15/2019 03:00 0.00 40.0 73.1 29.35 0.50 4.50 0.00 0.0 18.8 0.0
03/15/2019 02:00 0.00 39.0 68.8 29.38 0.25 4.25 0.00 0.3 46.3 0.0
03/15/2019 01:00 0.00 37.0 69.7 29.42 0.00 0.75 0.00 0.0 0.0 0.0
03/15/2019 00:00 0.00 36.0 71.4 29.45 0.25 2.25 0.00 0.0 0.0 0.0
03/14/2019 23:00 0.00 35.0 71.1 29.48 0.00 3.75 0.00 0.0 0.0 0.0
03/14/2019 22:00 0.00 36.0 68.1 29.49 0.00 1.50 0.00 0.0 0.0 0.0
03/14/2019 21:00 0.00 38.0 62.8 29.50 0.25 3.75 0.00 0.0 0.0 0.0
03/14/2019 20:00 0.00 40.0 52.0 29.50 0.00 2.00 0.00 0.0 0.0 0.0
03/14/2019 19:00 0.00 42.0 41.3 29.50 0.25 6.00 0.00 0.0 0.0 0.0
03/14/2019 18:00 0.00 45.0 31.8 29.51 0.25 4.25 0.00 0.0 0.0 0.0
03/14/2019 17:00 0.00 46.0 27.0 29.53 0.25 6.75 0.00 0.0 0.0 0.0
03/14/2019 16:00 0.00 47.0 25.8 29.54 0.00 4.50 0.00 0.0 0.0 0.0
03/14/2019 15:00 0.00 47.0 22.8 29.53 0.25 3.00 0.00 0.0 38.0 0.0
03/14/2019 14:00 0.00 46.0 44.3 29.56 0.00 2.75 0.00 0.0 0.0 0.0
03/14/2019 13:00 0.00 43.0 55.0 29.58 0.00 0.25 0.00 0.0 13.8 0.0
03/14/2019 12:00 0.00 40.0 57.4 29.60 0.00 0.00 0.00 0.5 66.8 0.0
03/14/2019 11:00 0.00 38.0 67.8 29.62 0.00 0.00 0.00 2.0 79.5 0.0
03/14/2019 10:00 0.00 36.0 73.6 29.64 0.00 0.00 0.00 0.3 23.8 0.0
03/14/2019 09:00 0.00 35.0 78.9 29.64 0.00 0.00 0.00 0.0 0.0 0.0
03/14/2019 08:00 0.00 32.0 81.4 29.64 0.00 0.00 0.00 1.8 47.0 0.0
03/14/2019 07:00 0.00 32.0 82.3 29.64 0.00 0.00 0.00 0.0 0.0 0.0
03/14/2019 06:00 0.00 32.0 82.3 29.62 0.00 0.00 0.00 0.0 0.0 0.0
03/14/2019 05:00 0.00 32.0 82.6 29.61 0.00 0.00 0.00 0.0 0.0 0.0
03/14/2019 04:00 0.00 32.0 83.2 29.61 0.00 0.00 0.00 0.0 0.0 0.0
03/14/2019 03:00 0.00 32.0 83.5 29.62 0.00 0.00 0.00 0.0 0.0 0.0
03/14/2019 02:00 0.00 33.0 84.0 29.62 0.00 0.00 0.00 0.0 0.0 0.0
03/14/2019 01:00 0.00 32.0 84.2 29.63 0.00 0.00 0.00 0.0 15.3 0.0
03/14/2019 00:00 0.01 32.0 82.7 29.63 0.00 0.00 0.00 0.0 26.0 0.0
03/13/2019 23:00 0.02 33.0 80.8 29.62 0.25 4.00 0.00 1.3 82.3 0.0
03/13/2019 22:00 0.00 34.0 71.1 29.61 2.75 12.00 0.00 0.5 54.5 0.0
03/13/2019 21:00 0.00 38.0 25.3 29.60 1.25 8.25 0.00 0.3 59.5 0.0
03/13/2019 20:00 0.00 38.0 18.5 29.59 0.00 1.75 0.00 0.3 54.5 0.0
03/13/2019 19:00 0.00 38.0 17.1 29.60 0.00 0.75 0.00 1.8 105.3 0.0
03/13/2019 18:00 0.00 39.0 14.1 29.59 0.00 0.00 0.00 0.3 65.3 0.0
03/13/2019 17:00 0.00 40.0 12.8 29.59 0.00 0.00 0.00 0.8 85.5 0.0
03/13/2019 16:00 0.00 41.0 9.3 29.60 0.00 0.50 0.00 0.0 63.3 0.0
03/13/2019 15:00 0.00 43.0 6.3 29.61 0.00 0.00 0.00 0.3 52.5 0.0
03/13/2019 14:00 0.00 40.0 9.3 29.63 1.00 6.75 0.00 0.0 43.5 0.0
03/13/2019 13:00 0.00 39.0 8.7 29.65 1.50 7.50 0.00 0.5 53.3 0.0
03/13/2019 12:00 0.00 36.0 11.9 29.66 1.50 6.25 0.00 0.0 21.8 0.0
03/13/2019 11:00 0.00 32.0 18.1 29.68 0.25 2.75 0.00 0.5 85.8 0.0
03/13/2019 10:00 0.00 28.0 24.9 29.68 0.00 0.75 0.00 0.0 8.3 0.0
03/13/2019 09:00 0.00 22.0 47.3 29.66 0.25 1.75 0.00 0.0 0.0 0.0
03/13/2019 08:00 0.00 18.0 59.2 29.66 0.00 0.00 0.00 0.0 0.0 0.0
03/13/2019 07:00 0.00 16.0 62.3 29.63 0.00 1.00 0.00 0.0 0.0 0.0
03/13/2019 06:00 0.00 17.0 60.1 29.61 0.00 1.25 0.00 0.0 0.0 0.0
03/13/2019 05:00 0.00 19.0 55.0 29.61 0.00 0.75 0.00 2.0 56.8 0.0
03/13/2019 04:00 0.00 21.0 49.1 29.61 0.00 1.50 0.00 0.3 92.8 0.0
03/13/2019 03:00 0.00 23.0 42.2 29.61 0.00 4.25 0.00 2.3 136.3 0.0
03/13/2019 02:00 0.00 23.0 40.7 29.59 0.50 5.00 0.00 0.8 93.0 0.0
03/13/2019 01:00 0.00 25.0 33.6 29.57 1.00 8.50 0.00 1.3 101.0 0.0
03/13/2019 00:00 0.00 26.0 26.8 29.57 2.00 9.50 0.00 0.0 73.3 0.0
03/12/2019 23:00 0.00 27.0 24.8 29.57 1.75 11.00 0.00 0.3 50.3 0.0
03/12/2019 22:00 0.00 28.0 36.6 29.54 0.50 6.25 0.00 0.5 63.3 0.0
03/12/2019 21:00 0.00 30.0 26.9 29.52 0.50 7.25 0.00 0.0 33.5 0.0
03/12/2019 20:00 0.00 32.0 21.4 29.50 1.00 8.50 0.00 0.0 19.0 0.0
03/12/2019 19:00 0.00 34.0 19.1 29.47 3.25 13.75 0.00 0.0 42.0 0.0
03/12/2019 18:00 0.00 39.0 13.9 29.44 4.75 14.50 0.00 0.0 28.0 0.0
03/12/2019 17:00 0.00 43.0 8.8 29.42 5.75 17.00 0.00 0.0 25.8 0.0
03/12/2019 16:00 0.00 43.0 9.3 29.41 4.50 15.50 0.00 0.0 48.3 0.0
03/12/2019 15:00 0.00 39.0 14.1 29.40 7.00 19.75 0.00 0.0 45.0 0.0
03/12/2019 14:00 0.00 38.0 16.7 29.39 6.50 21.50 0.00 0.3 42.5 0.0
03/12/2019 13:00 0.00 35.0 25.3 29.39 7.25 22.50 0.00 0.0 55.3 0.0
03/12/2019 12:00 0.00 33.0 25.5 29.39 6.75 23.25 0.00 0.0 43.0 0.0
03/12/2019 11:00 0.00 31.0 28.7 29.38 7.25 20.25 0.00 0.0 52.8 0.0
03/12/2019 10:00 0.00 31.0 32.4 29.36 5.50 18.00 0.00 0.0 23.3 0.0
03/12/2019 09:00 0.00 30.0 42.5 29.34 3.50 11.25 0.00 0.8 68.3 0.0
03/12/2019 08:00 0.00 28.0 46.2 29.32 3.50 13.25 0.00 0.3 53.0 0.0
03/12/2019 07:00 0.00 28.0 46.3 29.30 5.25 17.00 0.00 0.0 50.3 0.0
03/12/2019 06:00 0.00 28.0 48.8 29.29 5.00 16.75 0.00 0.0 42.0 0.0
03/12/2019 05:00 0.00 29.0 46.4 29.27 6.00 19.00 0.00 0.0 33.5 0.0
03/12/2019 04:00 0.00 30.0 44.3 29.25 6.50 21.25 0.00 0.0 41.5 0.0
03/12/2019 03:00 0.00 31.0 55.8 29.25 6.25 20.25 0.00 0.0 37.5 0.0
03/12/2019 02:00 0.00 32.0 58.9 29.24 6.25 15.75 0.00 0.3 56.8 0.0
03/12/2019 01:00 0.00 33.0 54.9 29.23 7.75 19.00 0.00 0.0 54.0 0.0
03/12/2019 00:00 0.00 33.0 53.8 29.23 5.50 14.25 0.00 0.0 53.8 0.0
03/11/2019 23:00 0.00 33.0 57.6 29.24 5.75 16.00 0.00 0.8 52.5 0.0
03/11/2019 22:00 0.00 34.0 55.9 29.23 5.75 16.00 0.00 0.3 50.8 0.0
03/11/2019 21:00 0.00 35.0 50.9 29.23 7.75 19.50 0.00 0.3 52.8 0.0
03/11/2019 20:00 0.00 36.0 48.2 29.22 8.25 24.25 0.00 0.3 59.8 0.0
03/11/2019 19:00 0.00 37.0 40.5 29.20 7.50 20.75 0.00 0.3 52.8 0.0
03/11/2019 18:00 0.00 38.0 36.6 29.18 9.50 26.25 0.00 0.8 60.8 0.0
03/11/2019 17:00 0.00 39.0 37.7 29.17 8.75 24.25 0.00 0.0 48.5 0.0
03/11/2019 16:00 0.00 40.0 30.7 29.16 9.75 23.00 0.50 0.0 49.8 0.0
03/11/2019 15:00 0.00 40.0 31.4 29.16 8.25 22.00 0.00 0.0 53.3 0.0
03/11/2019 14:00 0.00 42.0 29.5 29.18 8.50 22.50 0.00 0.3 55.5 0.0
03/11/2019 13:00 0.00 42.0 28.0 29.18 7.25 20.25 0.00 0.5 51.8 0.0
03/11/2019 12:00 0.00 41.0 39.5 29.19 7.75 21.50 0.00 0.3 47.5 0.0
03/11/2019 11:00 0.00 40.0 48.5 29.19 8.00 22.50 0.00 0.0 54.8 0.0
03/11/2019 10:00 0.00 39.0 54.4 29.19 5.50 16.00 0.00 0.8 65.3 0.0
03/11/2019 09:00 0.00 37.0 62.5 29.20 4.25 13.50 0.00 0.0 42.0 0.0
03/11/2019 08:00 0.00 37.0 64.7 29.18 3.25 12.75 0.00 0.8 67.0 0.0
03/11/2019 07:00 0.00 36.0 68.4 29.17 2.25 12.25 0.00 0.8 85.5 0.0
03/11/2019 06:00 0.00 36.0 67.5 29.16 4.50 13.50 0.00 1.0 81.3 0.0
03/11/2019 05:00 0.00 37.0 67.4 29.15 5.25 14.00 0.00 1.0 68.3 0.0
03/11/2019 04:00 0.02 36.0 76.3 29.16 1.75 8.25 0.00 0.8 56.5 0.0
03/11/2019 03:00 0.03 33.0 83.6 29.18 1.50 7.00 0.00 0.5 50.8 0.0
03/11/2019 02:00 0.03 32.0 84.8 29.18 2.50 7.75 0.00 0.3 53.0 0.0
03/11/2019 01:00 0.05 31.0 85.1 29.19 1.25 6.00 0.00 0.3 46.0 0.0
03/11/2019 00:00 0.04 31.0 84.8 29.19 0.00 0.00 0.00 0.5 52.8 0.0
03/10/2019 23:00 0.04 31.0 84.6 29.20 0.00 0.00 0.00 0.0 13.5 0.0
03/10/2019 22:00 0.02 31.0 84.1 29.21 0.25 2.25 0.00 0.0 0.3 0.0
03/10/2019 21:00 0.01 30.0 83.9 29.23 3.75 11.25 0.00 0.0 0.0 0.0
03/10/2019 20:00 0.02 30.0 84.0 29.27 5.50 14.00 0.00 0.0 0.0 0.0
03/10/2019 19:00 0.01 31.0 83.5 29.31 5.75 15.50 0.00 0.0 0.0 0.0
03/10/2019 18:00 0.01 29.0 82.0 29.36 5.25 13.50 0.00 0.0 0.0 0.0
03/10/2019 17:00 0.01 28.0 80.9 29.41 5.75 13.50 0.00 0.0 0.0 0.0
03/10/2019 16:00 0.02 28.0 79.8 29.47 5.50 14.50 0.00 0.0 0.0 0.0
03/10/2019 15:00 0.01 28.0 78.2 29.53 2.75 8.25 0.00 0.0 0.0 0.0
03/10/2019 14:00 0.01 27.0 77.6 29.59 0.75 5.75 0.00 0.0 0.0 0.0
03/10/2019 13:00 0.00 25.0 78.2 29.63 4.50 10.50 0.00 0.0 0.0 0.0
03/10/2019 12:00 0.00 26.0 80.0 29.65 3.25 11.50 0.00 0.0 0.0 0.0
03/10/2019 11:00 0.00 24.0 77.7 29.70 1.75 7.50 0.00 0.0 0.0 0.0
03/10/2019 10:00 0.00 25.0 61.6 29.72 1.25 7.00 0.00 11.5 53.8 0.0
03/10/2019 09:00 0.00 25.0 42.0 29.74 3.50 11.00 0.00 26.8 65.5 0.0
03/10/2019 08:00 0.00 24.0 37.7 29.77 2.50 10.25 0.00 0.0 0.0 0.0
03/10/2019 07:00 0.00 24.0 37.3 29.77 2.00 9.00 0.00 0.0 0.0 0.0
03/10/2019 06:00 -- -- -- -- -- -- -- -- -- --
03/10/2019 05:00 -- -- -- -- -- -- -- -- -- --
03/10/2019 04:00 -- -- -- -- -- -- -- -- -- --
03/10/2019 03:00 -- -- -- -- -- -- -- -- -- --
03/10/2019 02:00 -- -- -- -- -- -- -- -- -- --